sensor_id;sensor_type;location;lat;lon;timestamp;temperature;humidity
80254;DHT22;69563;37.974;23.708;2023-07-13T00:01:15;29.30;39.50
80254;DHT22;69563;37.974;23.708;2023-07-13T00:03:41;29.30;39.50
80254;DHT22;69563;37.974;23.708;2023-07-13T00:06:08;29.30;39.50
80254;DHT22;69563;37.974;23.708;2023-07-13T00:08:34;29.30;39.40
80254;DHT22;69563;37.974;23.708;2023-07-13T00:11:01;29.30;40.50
80254;DHT22;69563;37.974;23.708;2023-07-13T00:13:28;29.30;39.50
80254;DHT22;69563;37.974;23.708;2023-07-13T00:15:55;29.30;39.50
80254;DHT22;69563;37.974;23.708;2023-07-13T00:18:21;29.30;39.50
80254;DHT22;69563;37.974;23.708;2023-07-13T00:20:47;29.30;39.50
80254;DHT22;69563;37.974;23.708;2023-07-13T00:23:13;29.30;39.40
80254;DHT22;69563;37.974;23.708;2023-07-13T00:25:39;29.30;39.50
80254;DHT22;69563;37.974;23.708;2023-07-13T00:28:04;29.30;39.50
80254;DHT22;69563;37.974;23.708;2023-07-13T00:30:30;29.30;40.50
80254;DHT22;69563;37.974;23.708;2023-07-13T00:32:56;29.30;39.50
80254;DHT22;69563;37.974;23.708;2023-07-13T00:35:21;29.30;39.50
80254;DHT22;69563;37.974;23.708;2023-07-13T00:37:47;29.30;39.60
80254;DHT22;69563;37.974;23.708;2023-07-13T00:40:15;29.30;39.60
80254;DHT22;69563;37.974;23.708;2023-07-13T00:42:41;29.30;39.60
80254;DHT22;69563;37.974;23.708;2023-07-13T00:47:41;29.30;39.70
80254;DHT22;69563;37.974;23.708;2023-07-13T00:50:10;29.20;39.60
80254;DHT22;69563;37.974;23.708;2023-07-13T00:52:39;29.20;39.70
80254;DHT22;69563;37.974;23.708;2023-07-13T00:55:06;29.20;39.80
80254;DHT22;69563;37.974;23.708;2023-07-13T00:57:34;29.20;39.80
80254;DHT22;69563;37.974;23.708;2023-07-13T01:00:03;29.20;39.80
80254;DHT22;69563;37.974;23.708;2023-07-13T01:02:32;29.20;39.70
80254;DHT22;69563;37.974;23.708;2023-07-13T01:04:58;29.20;39.80
80254;DHT22;69563;37.974;23.708;2023-07-13T01:07:24;29.20;39.80
80254;DHT22;69563;37.974;23.708;2023-07-13T01:09:50;29.20;39.80
80254;DHT22;69563;37.974;23.708;2023-07-13T01:12:16;29.20;39.80
80254;DHT22;69563;37.974;23.708;2023-07-13T01:14:41;29.20;39.80
80254;DHT22;69563;37.974;23.708;2023-07-13T01:17:11;29.20;39.80
80254;DHT22;69563;37.974;23.708;2023-07-13T01:19:43;29.20;39.80
80254;DHT22;69563;37.974;23.708;2023-07-13T01:22:11;29.20;40.80
80254;DHT22;69563;37.974;23.708;2023-07-13T01:24:39;29.20;39.80
80254;DHT22;69563;37.974;23.708;2023-07-13T01:27:05;29.20;39.90
80254;DHT22;69563;37.974;23.708;2023-07-13T01:29:33;29.20;39.80
80254;DHT22;69563;37.974;23.708;2023-07-13T01:31:59;29.10;39.80
80254;DHT22;69563;37.974;23.708;2023-07-13T01:34:26;29.20;39.90
80254;DHT22;69563;37.974;23.708;2023-07-13T01:36:53;29.10;39.90
80254;DHT22;69563;37.974;23.708;2023-07-13T01:39:21;29.10;39.90
80254;DHT22;69563;37.974;23.708;2023-07-13T01:41:47;29.10;39.90
80254;DHT22;69563;37.974;23.708;2023-07-13T01:44:13;29.10;39.90
80254;DHT22;69563;37.974;23.708;2023-07-13T01:46:39;29.10;39.90
80254;DHT22;69563;37.974;23.708;2023-07-13T01:49:05;29.10;39.90
80254;DHT22;69563;37.974;23.708;2023-07-13T01:51:30;29.10;39.90
80254;DHT22;69563;37.974;23.708;2023-07-13T01:53:56;29.10;39.90
80254;DHT22;69563;37.974;23.708;2023-07-13T01:56:22;29.10;40.00
80254;DHT22;69563;37.974;23.708;2023-07-13T01:58:48;29.10;40.00
80254;DHT22;69563;37.974;23.708;2023-07-13T02:01:14;29.10;40.00
80254;DHT22;69563;37.974;23.708;2023-07-13T02:03:39;29.10;40.00
80254;DHT22;69563;37.974;23.708;2023-07-13T02:06:05;29.10;40.10
80254;DHT22;69563;37.974;23.708;2023-07-13T02:08:33;29.10;40.10
80254;DHT22;69563;37.974;23.708;2023-07-13T02:10:59;29.10;40.10
80254;DHT22;69563;37.974;23.708;2023-07-13T02:13:24;29.00;40.10
80254;DHT22;69563;37.974;23.708;2023-07-13T02:15:51;29.10;40.20
80254;DHT22;69563;37.974;23.708;2023-07-13T02:18:17;29.00;40.10
80254;DHT22;69563;37.974;23.708;2023-07-13T02:20:43;29.00;40.10
80254;DHT22;69563;37.974;23.708;2023-07-13T02:23:09;29.00;40.00
80254;DHT22;69563;37.974;23.708;2023-07-13T02:25:35;29.00;40.10
80254;DHT22;69563;37.974;23.708;2023-07-13T02:28:00;29.00;40.10
80254;DHT22;69563;37.974;23.708;2023-07-13T02:30:27;29.00;40.10
80254;DHT22;69563;37.974;23.708;2023-07-13T02:32:58;29.00;40.10
80254;DHT22;69563;37.974;23.708;2023-07-13T02:35:23;29.00;40.20
80254;DHT22;69563;37.974;23.708;2023-07-13T02:37:49;29.00;40.10
80254;DHT22;69563;37.974;23.708;2023-07-13T02:40:15;29.00;40.10
80254;DHT22;69563;37.974;23.708;2023-07-13T02:42:40;29.00;40.10
80254;DHT22;69563;37.974;23.708;2023-07-13T02:45:08;29.00;40.10
80254;DHT22;69563;37.974;23.708;2023-07-13T02:47:34;29.00;40.10
80254;DHT22;69563;37.974;23.708;2023-07-13T02:50:00;29.00;40.10
80254;DHT22;69563;37.974;23.708;2023-07-13T02:52:26;29.00;40.10
80254;DHT22;69563;37.974;23.708;2023-07-13T02:54:52;29.00;40.20
80254;DHT22;69563;37.974;23.708;2023-07-13T02:57:18;29.00;40.10
80254;DHT22;69563;37.974;23.708;2023-07-13T02:59:43;28.90;40.10
80254;DHT22;69563;37.974;23.708;2023-07-13T03:02:09;28.90;40.10
80254;DHT22;69563;37.974;23.708;2023-07-13T03:04:38;28.90;40.20
80254;DHT22;69563;37.974;23.708;2023-07-13T03:07:05;28.90;40.30
80254;DHT22;69563;37.974;23.708;2023-07-13T03:09:32;28.90;40.30
80254;DHT22;69563;37.974;23.708;2023-07-13T03:11:58;28.90;40.40
80254;DHT22;69563;37.974;23.708;2023-07-13T03:14:24;28.90;40.30
80254;DHT22;69563;37.974;23.708;2023-07-13T03:16:50;28.90;40.30
80254;DHT22;69563;37.974;23.708;2023-07-13T03:19:15;28.90;40.40
80254;DHT22;69563;37.974;23.708;2023-07-13T03:21:41;28.90;40.40
80254;DHT22;69563;37.974;23.708;2023-07-13T03:24:07;28.90;40.40
80254;DHT22;69563;37.974;23.708;2023-07-13T03:26:33;28.90;40.40
80254;DHT22;69563;37.974;23.708;2023-07-13T03:28:58;28.90;40.40
80254;DHT22;69563;37.974;23.708;2023-07-13T03:31:29;28.90;40.40
80254;DHT22;69563;37.974;23.708;2023-07-13T03:33:56;28.90;40.50
80254;DHT22;69563;37.974;23.708;2023-07-13T03:36:24;28.90;40.40
80254;DHT22;69563;37.974;23.708;2023-07-13T03:38:53;28.90;40.40
80254;DHT22;69563;37.974;23.708;2023-07-13T03:41:19;28.90;40.40
80254;DHT22;69563;37.974;23.708;2023-07-13T03:43:45;28.90;40.40
80254;DHT22;69563;37.974;23.708;2023-07-13T03:46:13;28.90;40.40
80254;DHT22;69563;37.974;23.708;2023-07-13T03:48:39;29.00;40.50
80254;DHT22;69563;37.974;23.708;2023-07-13T03:51:06;29.00;40.50
80254;DHT22;69563;37.974;23.708;2023-07-13T03:53:32;29.00;40.50
80254;DHT22;69563;37.974;23.708;2023-07-13T03:55:57;29.00;40.50
80254;DHT22;69563;37.974;23.708;2023-07-13T03:58:34;29.00;40.50
80254;DHT22;69563;37.974;23.708;2023-07-13T04:01:02;29.10;40.40
80254;DHT22;69563;37.974;23.708;2023-07-13T04:03:28;29.10;40.30
80254;DHT22;69563;37.974;23.708;2023-07-13T04:05:58;29.10;40.30
80254;DHT22;69563;37.974;23.708;2023-07-13T04:08:28;29.20;40.30
80254;DHT22;69563;37.974;23.708;2023-07-13T04:10:55;29.20;40.60
80254;DHT22;69563;37.974;23.708;2023-07-13T04:13:21;29.20;41.00
80254;DHT22;69563;37.974;23.708;2023-07-13T04:15:47;29.20;41.10
80254;DHT22;69563;37.974;23.708;2023-07-13T04:18:12;29.20;41.20
80254;DHT22;69563;37.974;23.708;2023-07-13T04:20:38;29.20;41.10
80254;DHT22;69563;37.974;23.708;2023-07-13T04:23:04;29.30;41.00
80254;DHT22;69563;37.974;23.708;2023-07-13T04:25:29;29.30;40.70
80254;DHT22;69563;37.974;23.708;2023-07-13T04:27:56;29.40;40.80
80254;DHT22;69563;37.974;23.708;2023-07-13T04:30:22;29.40;40.40
80254;DHT22;69563;37.974;23.708;2023-07-13T04:32:51;29.50;41.30
80254;DHT22;69563;37.974;23.708;2023-07-13T04:35:18;29.50;40.00
80254;DHT22;69563;37.974;23.708;2023-07-13T04:37:46;29.60;40.00
80254;DHT22;69563;37.974;23.708;2023-07-13T04:40:12;29.60;39.80
80254;DHT22;69563;37.974;23.708;2023-07-13T04:42:38;29.60;39.60
80254;DHT22;69563;37.974;23.708;2023-07-13T04:45:05;29.70;39.60
80254;DHT22;69563;37.974;23.708;2023-07-13T04:47:31;29.70;39.50
80254;DHT22;69563;37.974;23.708;2023-07-13T04:49:57;29.80;39.50
80254;DHT22;69563;37.974;23.708;2023-07-13T04:52:23;29.80;39.40
80254;DHT22;69563;37.974;23.708;2023-07-13T04:54:49;29.80;39.40
80254;DHT22;69563;37.974;23.708;2023-07-13T04:57:15;29.90;39.30
80254;DHT22;69563;37.974;23.708;2023-07-13T04:59:41;29.90;39.30
80254;DHT22;69563;37.974;23.708;2023-07-13T05:02:06;30.00;39.30
80254;DHT22;69563;37.974;23.708;2023-07-13T05:04:32;30.00;39.30
80254;DHT22;69563;37.974;23.708;2023-07-13T05:07:01;30.00;39.10
80254;DHT22;69563;37.974;23.708;2023-07-13T05:09:27;30.10;39.10
80254;DHT22;69563;37.974;23.708;2023-07-13T05:11:53;30.10;38.90
80254;DHT22;69563;37.974;23.708;2023-07-13T05:14:19;30.20;38.90
80254;DHT22;69563;37.974;23.708;2023-07-13T05:16:44;30.30;38.90
80254;DHT22;69563;37.974;23.708;2023-07-13T05:19:11;30.30;38.80
80254;DHT22;69563;37.974;23.708;2023-07-13T05:21:37;30.30;38.70
80254;DHT22;69563;37.974;23.708;2023-07-13T05:24:03;30.40;38.50
80254;DHT22;69563;37.974;23.708;2023-07-13T05:26:29;30.50;38.40
80254;DHT22;69563;37.974;23.708;2023-07-13T05:28:55;30.50;38.20
80254;DHT22;69563;37.974;23.708;2023-07-13T05:31:20;30.50;38.00
80254;DHT22;69563;37.974;23.708;2023-07-13T05:33:46;30.60;37.80
80254;DHT22;69563;37.974;23.708;2023-07-13T05:36:12;30.60;37.60
80254;DHT22;69563;37.974;23.708;2023-07-13T05:38:37;30.60;37.30
80254;DHT22;69563;37.974;23.708;2023-07-13T05:41:03;30.70;37.20
80254;DHT22;69563;37.974;23.708;2023-07-13T05:43:29;30.70;37.00
80254;DHT22;69563;37.974;23.708;2023-07-13T05:45:56;30.80;37.00
80254;DHT22;69563;37.974;23.708;2023-07-13T05:48:22;30.80;36.80
80254;DHT22;69563;37.974;23.708;2023-07-13T05:50:48;30.90;36.70
80254;DHT22;69563;37.974;23.708;2023-07-13T05:53:13;30.90;36.70
80254;DHT22;69563;37.974;23.708;2023-07-13T05:55:43;30.90;36.60
80254;DHT22;69563;37.974;23.708;2023-07-13T05:58:11;31.00;36.50
80254;DHT22;69563;37.974;23.708;2023-07-13T06:00:36;30.90;36.40
80254;DHT22;69563;37.974;23.708;2023-07-13T06:03:02;31.00;36.40
80254;DHT22;69563;37.974;23.708;2023-07-13T06:05:28;31.00;36.30
80254;DHT22;69563;37.974;23.708;2023-07-13T06:07:54;31.00;36.30
80254;DHT22;69563;37.974;23.708;2023-07-13T06:10:20;31.00;36.20
80254;DHT22;69563;37.974;23.708;2023-07-13T06:12:46;31.00;36.20
80254;DHT22;69563;37.974;23.708;2023-07-13T06:15:12;31.00;36.10
80254;DHT22;69563;37.974;23.708;2023-07-13T06:17:37;31.10;36.10
80254;DHT22;69563;37.974;23.708;2023-07-13T06:20:03;31.10;36.10
80254;DHT22;69563;37.974;23.708;2023-07-13T06:22:29;31.10;36.10
80254;DHT22;69563;37.974;23.708;2023-07-13T06:24:54;31.10;36.20
80254;DHT22;69563;37.974;23.708;2023-07-13T06:27:20;31.10;36.00
80254;DHT22;69563;37.974;23.708;2023-07-13T06:29:46;31.10;36.10
80254;DHT22;69563;37.974;23.708;2023-07-13T06:32:12;31.10;36.00
80254;DHT22;69563;37.974;23.708;2023-07-13T06:34:37;31.10;35.90
80254;DHT22;69563;37.974;23.708;2023-07-13T06:37:03;31.10;35.90
80254;DHT22;69563;37.974;23.708;2023-07-13T06:39:29;31.10;35.90
80254;DHT22;69563;37.974;23.708;2023-07-13T06:41:54;31.10;35.90
80254;DHT22;69563;37.974;23.708;2023-07-13T06:44:20;31.10;36.00
80254;DHT22;69563;37.974;23.708;2023-07-13T06:46:46;31.10;36.10
80254;DHT22;69563;37.974;23.708;2023-07-13T06:49:11;31.10;36.20
80254;DHT22;69563;37.974;23.708;2023-07-13T06:51:37;31.10;36.30
80254;DHT22;69563;37.974;23.708;2023-07-13T06:54:03;31.10;36.30
80254;DHT22;69563;37.974;23.708;2023-07-13T06:56:30;31.10;36.40
80254;DHT22;69563;37.974;23.708;2023-07-13T06:58:55;31.00;36.40
80254;DHT22;69563;37.974;23.708;2023-07-13T07:01:21;31.00;36.40
80254;DHT22;69563;37.974;23.708;2023-07-13T07:03:47;31.00;36.50
80254;DHT22;69563;37.974;23.708;2023-07-13T07:06:20;31.00;36.40
80254;DHT22;69563;37.974;23.708;2023-07-13T07:08:49;31.10;36.40
80254;DHT22;69563;37.974;23.708;2023-07-13T07:11:22;31.10;36.40
80254;DHT22;69563;37.974;23.708;2023-07-13T07:13:49;31.10;36.50
80254;DHT22;69563;37.974;23.708;2023-07-13T07:16:15;31.00;36.30
80254;DHT22;69563;37.974;23.708;2023-07-13T07:18:41;30.90;36.20
80254;DHT22;69563;37.974;23.708;2023-07-13T07:21:07;30.90;36.50
80254;DHT22;69563;37.974;23.708;2023-07-13T07:23:33;30.90;36.50
80254;DHT22;69563;37.974;23.708;2023-07-13T07:25:58;30.90;36.50
80254;DHT22;69563;37.974;23.708;2023-07-13T07:28:24;30.90;36.50
80254;DHT22;69563;37.974;23.708;2023-07-13T07:30:52;31.00;36.60
80254;DHT22;69563;37.974;23.708;2023-07-13T07:33:19;31.00;36.50
80254;DHT22;69563;37.974;23.708;2023-07-13T07:35:44;31.00;36.50
80254;DHT22;69563;37.974;23.708;2023-07-13T07:38:10;31.00;36.40
80254;DHT22;69563;37.974;23.708;2023-07-13T07:40:40;31.00;36.50
80254;DHT22;69563;37.974;23.708;2023-07-13T07:43:07;31.00;36.80
80254;DHT22;69563;37.974;23.708;2023-07-13T07:45:33;30.90;36.70
80254;DHT22;69563;37.974;23.708;2023-07-13T07:47:59;30.90;36.60
80254;DHT22;69563;37.974;23.708;2023-07-13T07:50:25;31.00;36.60
80254;DHT22;69563;37.974;23.708;2023-07-13T07:52:51;30.90;36.50
80254;DHT22;69563;37.974;23.708;2023-07-13T07:55:17;30.80;36.40
80254;DHT22;69563;37.974;23.708;2023-07-13T07:57:43;30.70;36.60
80254;DHT22;69563;37.974;23.708;2023-07-13T08:00:09;30.60;36.80
80254;DHT22;69563;37.974;23.708;2023-07-13T08:02:35;30.60;37.00
80254;DHT22;69563;37.974;23.708;2023-07-13T08:05:01;30.60;37.10
80254;DHT22;69563;37.974;23.708;2023-07-13T08:07:26;30.50;37.10
80254;DHT22;69563;37.974;23.708;2023-07-13T08:09:53;30.50;37.20
80254;DHT22;69563;37.974;23.708;2023-07-13T08:12:19;30.50;37.40
80254;DHT22;69563;37.974;23.708;2023-07-13T08:14:44;30.60;37.50
80254;DHT22;69563;37.974;23.708;2023-07-13T08:17:10;30.50;37.70
80254;DHT22;69563;37.974;23.708;2023-07-13T08:19:36;30.60;37.90
80254;DHT22;69563;37.974;23.708;2023-07-13T08:22:01;30.60;38.10
80254;DHT22;69563;37.974;23.708;2023-07-13T08:24:27;30.60;38.20
80254;DHT22;69563;37.974;23.708;2023-07-13T08:26:53;30.70;38.50
80254;DHT22;69563;37.974;23.708;2023-07-13T08:29:20;30.60;38.90
80254;DHT22;69563;37.974;23.708;2023-07-13T08:31:45;30.60;39.00
80254;DHT22;69563;37.974;23.708;2023-07-13T08:34:11;30.60;39.10
80254;DHT22;69563;37.974;23.708;2023-07-13T08:36:37;30.70;39.10
80254;DHT22;69563;37.974;23.708;2023-07-13T08:39:02;30.70;39.00
80254;DHT22;69563;37.974;23.708;2023-07-13T08:41:28;30.90;39.00
80254;DHT22;69563;37.974;23.708;2023-07-13T08:43:58;30.90;39.10
80254;DHT22;69563;37.974;23.708;2023-07-13T08:48:59;31.00;39.10
80254;DHT22;69563;37.974;23.708;2023-07-13T08:51:39;31.00;39.20
80254;DHT22;69563;37.974;23.708;2023-07-13T08:54:16;31.00;39.30
80254;DHT22;69563;37.974;23.708;2023-07-13T08:56:45;31.00;39.40
80254;DHT22;69563;37.974;23.708;2023-07-13T08:59:15;31.00;39.60
80254;DHT22;69563;37.974;23.708;2023-07-13T09:03:03;31.00;39.80
80254;DHT22;69563;37.974;23.708;2023-07-13T09:05:09;31.00;40.00
80254;DHT22;69563;37.974;23.708;2023-07-13T09:07:50;31.10;40.10
80254;DHT22;69563;37.974;23.708;2023-07-13T09:10:26;31.10;40.10
80254;DHT22;69563;37.974;23.708;2023-07-13T09:13:16;31.10;40.30
80254;DHT22;69563;37.974;23.708;2023-07-13T09:15:47;31.10;40.40
80254;DHT22;69563;37.974;23.708;2023-07-13T09:21:00;31.10;40.50
80254;DHT22;69563;37.974;23.708;2023-07-13T09:23:29;31.10;40.40
80254;DHT22;69563;37.974;23.708;2023-07-13T09:26:14;31.10;40.50
80254;DHT22;69563;37.974;23.708;2023-07-13T09:28:46;31.10;40.70
80254;DHT22;69563;37.974;23.708;2023-07-13T09:31:17;31.10;40.80
80254;DHT22;69563;37.974;23.708;2023-07-13T09:33:44;31.10;40.60
80254;DHT22;69563;37.974;23.708;2023-07-13T09:36:32;31.10;40.60
80254;DHT22;69563;37.974;23.708;2023-07-13T09:44:18;31.10;40.60
80254;DHT22;69563;37.974;23.708;2023-07-13T09:46:54;31.10;40.60
80254;DHT22;69563;37.974;23.708;2023-07-13T09:49:28;31.20;40.60
80254;DHT22;69563;37.974;23.708;2023-07-13T09:52:06;31.20;40.60
80254;DHT22;69563;37.974;23.708;2023-07-13T09:54:36;31.10;41.50
80254;DHT22;69563;37.974;23.708;2023-07-13T09:57:08;31.20;40.60
80254;DHT22;69563;37.974;23.708;2023-07-13T09:59:43;31.10;40.40
80254;DHT22;69563;37.974;23.708;2023-07-13T10:02:26;31.10;40.40
80254;DHT22;69563;37.974;23.708;2023-07-13T10:05:02;31.10;40.30
80254;DHT22;69563;37.974;23.708;2023-07-13T10:07:29;31.20;40.20
80254;DHT22;69563;37.974;23.708;2023-07-13T10:10:00;31.10;40.10
80254;DHT22;69563;37.974;23.708;2023-07-13T10:12:30;31.10;40.00
80254;DHT22;69563;37.974;23.708;2023-07-13T10:15:02;31.10;40.90
80254;DHT22;69563;37.974;23.708;2023-07-13T10:17:31;31.10;39.90
80254;DHT22;69563;37.974;23.708;2023-07-13T10:20:03;31.00;39.60
80254;DHT22;69563;37.974;23.708;2023-07-13T10:25:25;30.90;39.80
80254;DHT22;69563;37.974;23.708;2023-07-13T10:27:53;30.90;39.90
80254;DHT22;69563;37.974;23.708;2023-07-13T10:30:29;31.00;39.80
80254;DHT22;69563;37.974;23.708;2023-07-13T10:33:04;31.00;39.70
80254;DHT22;69563;37.974;23.708;2023-07-13T10:35:37;31.00;40.60
80254;DHT22;69563;37.974;23.708;2023-07-13T10:38:23;31.00;39.60
80254;DHT22;69563;37.974;23.708;2023-07-13T10:43:27;31.00;39.50
80254;DHT22;69563;37.974;23.708;2023-07-13T10:45:54;31.00;39.50
80254;DHT22;69563;37.974;23.708;2023-07-13T10:48:21;31.00;39.40
80254;DHT22;69563;37.974;23.708;2023-07-13T10:50:51;30.90;39.10
80254;DHT22;69563;37.974;23.708;2023-07-13T10:53:20;31.00;39.00
80254;DHT22;69563;37.974;23.708;2023-07-13T11:03:37;30.90;38.60
80254;DHT22;69563;37.974;23.708;2023-07-13T11:08:56;31.00;38.60
80254;DHT22;69563;37.974;23.708;2023-07-13T11:18:49;31.00;38.30
80254;DHT22;69563;37.974;23.708;2023-07-13T11:21:20;31.00;38.00
80254;DHT22;69563;37.974;23.708;2023-07-13T11:24:01;30.90;37.80
80254;DHT22;69563;37.974;23.708;2023-07-13T11:31:51;30.90;37.90
80254;DHT22;69563;37.974;23.708;2023-07-13T11:34:21;30.80;38.00
80254;DHT22;69563;37.974;23.708;2023-07-13T11:36:49;30.80;38.00
80254;DHT22;69563;37.974;23.708;2023-07-13T11:42:01;30.80;38.00
80254;DHT22;69563;37.974;23.708;2023-07-13T11:44:29;30.80;38.10
80254;DHT22;69563;37.974;23.708;2023-07-13T11:46:57;30.80;38.30
80254;DHT22;69563;37.974;23.708;2023-07-13T11:49:29;30.80;38.40
80254;DHT22;69563;37.974;23.708;2023-07-13T11:51:56;30.80;38.40
80254;DHT22;69563;37.974;23.708;2023-07-13T11:54:33;30.70;38.30
80254;DHT22;69563;37.974;23.708;2023-07-13T11:57:02;30.60;38.20
80254;DHT22;69563;37.974;23.708;2023-07-13T11:59:32;30.50;38.70
80254;DHT22;69563;37.974;23.708;2023-07-13T12:01:59;30.50;39.00
80254;DHT22;69563;37.974;23.708;2023-07-13T12:04:28;30.50;38.90
80254;DHT22;69563;37.974;23.708;2023-07-13T12:07:06;30.50;38.70
80254;DHT22;69563;37.974;23.708;2023-07-13T12:09:33;30.50;38.40
80254;DHT22;69563;37.974;23.708;2023-07-13T12:11:59;30.40;39.50
80254;DHT22;69563;37.974;23.708;2023-07-13T12:14:27;30.50;38.60
80254;DHT22;69563;37.974;23.708;2023-07-13T12:16:53;30.50;38.90
80254;DHT22;69563;37.974;23.708;2023-07-13T12:19:23;30.50;39.10
80254;DHT22;69563;37.974;23.708;2023-07-13T12:21:52;30.60;39.50
80254;DHT22;69563;37.974;23.708;2023-07-13T12:24:19;30.60;39.50
80254;DHT22;69563;37.974;23.708;2023-07-13T12:27:01;30.70;39.80
80254;DHT22;69563;37.974;23.708;2023-07-13T12:29:27;30.70;39.80
80254;DHT22;69563;37.974;23.708;2023-07-13T12:31:53;30.70;40.00
80254;DHT22;69563;37.974;23.708;2023-07-13T12:34:23;30.70;40.00
80254;DHT22;69563;37.974;23.708;2023-07-13T12:36:59;30.70;40.00
80254;DHT22;69563;37.974;23.708;2023-07-13T12:42:16;30.80;40.00
80254;DHT22;69563;37.974;23.708;2023-07-13T12:44:43;30.80;39.90
80254;DHT22;69563;37.974;23.708;2023-07-13T12:47:13;30.70;39.70
80254;DHT22;69563;37.974;23.708;2023-07-13T12:49:58;30.80;39.80
80254;DHT22;69563;37.974;23.708;2023-07-13T12:52:30;30.80;39.60
80254;DHT22;69563;37.974;23.708;2023-07-13T12:54:59;30.80;39.50
80254;DHT22;69563;37.974;23.708;2023-07-13T12:57:28;30.70;39.20
80254;DHT22;69563;37.974;23.708;2023-07-13T12:59:54;30.70;39.00
80254;DHT22;69563;37.974;23.708;2023-07-13T13:02:29;30.70;39.80
80254;DHT22;69563;37.974;23.708;2023-07-13T13:04:56;30.70;38.60
80254;DHT22;69563;37.974;23.708;2023-07-13T13:07:24;30.70;38.40
80254;DHT22;69563;37.974;23.708;2023-07-13T13:09:50;30.70;38.20
80254;DHT22;69563;37.974;23.708;2023-07-13T13:12:15;30.70;38.10
80254;DHT22;69563;37.974;23.708;2023-07-13T13:14:42;30.70;38.10
80254;DHT22;69563;37.974;23.708;2023-07-13T13:17:22;30.70;37.80
80254;DHT22;69563;37.974;23.708;2023-07-13T13:19:52;30.70;37.80
80254;DHT22;69563;37.974;23.708;2023-07-13T13:22:20;30.70;37.70
80254;DHT22;69563;37.974;23.708;2023-07-13T13:24:46;30.70;37.50
80254;DHT22;69563;37.974;23.708;2023-07-13T13:27:21;30.70;37.40
80254;DHT22;69563;37.974;23.708;2023-07-13T13:29:49;30.70;37.30
80254;DHT22;69563;37.974;23.708;2023-07-13T13:32:17;30.60;37.20
80254;DHT22;69563;37.974;23.708;2023-07-13T13:34:44;30.60;37.20
80254;DHT22;69563;37.974;23.708;2023-07-13T13:37:21;30.60;37.20
80254;DHT22;69563;37.974;23.708;2023-07-13T13:39:48;30.60;37.20
80254;DHT22;69563;37.974;23.708;2023-07-13T13:42:14;30.60;37.30
80254;DHT22;69563;37.974;23.708;2023-07-13T13:44:40;30.60;37.40
80254;DHT22;69563;37.974;23.708;2023-07-13T13:47:30;30.60;37.40
80254;DHT22;69563;37.974;23.708;2023-07-13T13:49:56;30.60;37.60
80254;DHT22;69563;37.974;23.708;2023-07-13T13:52:23;30.60;37.80
80254;DHT22;69563;37.974;23.708;2023-07-13T13:54:48;30.60;38.90
80254;DHT22;69563;37.974;23.708;2023-07-13T13:57:14;30.60;38.00
80254;DHT22;69563;37.974;23.708;2023-07-13T13:59:40;30.50;37.80
80254;DHT22;69563;37.974;23.708;2023-07-13T14:02:27;30.50;37.80
80254;DHT22;69563;37.974;23.708;2023-07-13T14:04:59;30.50;37.80
80254;DHT22;69563;37.974;23.708;2023-07-13T14:07:25;30.50;37.70
80254;DHT22;69563;37.974;23.708;2023-07-13T14:09:53;30.50;37.70
80254;DHT22;69563;37.974;23.708;2023-07-13T14:12:20;30.50;37.80
80254;DHT22;69563;37.974;23.708;2023-07-13T14:14:46;30.50;38.00
80254;DHT22;69563;37.974;23.708;2023-07-13T14:17:23;30.50;38.10
80254;DHT22;69563;37.974;23.708;2023-07-13T14:19:50;30.50;38.20
80254;DHT22;69563;37.974;23.708;2023-07-13T14:22:17;30.50;38.30
80254;DHT22;69563;37.974;23.708;2023-07-13T14:24:43;30.50;38.50
80254;DHT22;69563;37.974;23.708;2023-07-13T14:27:10;30.50;38.60
80254;DHT22;69563;37.974;23.708;2023-07-13T14:29:37;30.40;38.70
80254;DHT22;69563;37.974;23.708;2023-07-13T14:32:02;30.50;38.70
80254;DHT22;69563;37.974;23.708;2023-07-13T14:34:30;30.50;38.90
80254;DHT22;69563;37.974;23.708;2023-07-13T14:36:56;30.40;39.00
80254;DHT22;69563;37.974;23.708;2023-07-13T14:39:25;30.40;39.20
80254;DHT22;69563;37.974;23.708;2023-07-13T14:41:53;30.40;39.40
80254;DHT22;69563;37.974;23.708;2023-07-13T14:44:30;30.50;39.60
80254;DHT22;69563;37.974;23.708;2023-07-13T14:46:57;30.40;39.60
80254;DHT22;69563;37.974;23.708;2023-07-13T14:49:30;30.40;39.80
80254;DHT22;69563;37.974;23.708;2023-07-13T14:51:58;30.40;39.80
80254;DHT22;69563;37.974;23.708;2023-07-13T14:54:24;30.40;39.80
80254;DHT22;69563;37.974;23.708;2023-07-13T14:56:50;30.40;39.90
80254;DHT22;69563;37.974;23.708;2023-07-13T14:59:16;30.40;39.90
80254;DHT22;69563;37.974;23.708;2023-07-13T15:01:44;30.30;40.00
80254;DHT22;69563;37.974;23.708;2023-07-13T15:04:11;30.30;40.00
80254;DHT22;69563;37.974;23.708;2023-07-13T15:06:57;30.30;40.10
80254;DHT22;69563;37.974;23.708;2023-07-13T15:09:23;30.30;40.20
80254;DHT22;69563;37.974;23.708;2023-07-13T15:11:52;30.30;40.20
80254;DHT22;69563;37.974;23.708;2023-07-13T15:14:18;30.30;40.30
80254;DHT22;69563;37.974;23.708;2023-07-13T15:16:45;30.30;40.50
80254;DHT22;69563;37.974;23.708;2023-07-13T15:19:11;30.30;40.50
80254;DHT22;69563;37.974;23.708;2023-07-13T15:21:37;30.30;40.60
80254;DHT22;69563;37.974;23.708;2023-07-13T15:24:03;30.30;40.50
80254;DHT22;69563;37.974;23.708;2023-07-13T15:26:28;30.20;40.40
80254;DHT22;69563;37.974;23.708;2023-07-13T15:28:55;30.20;40.40
80254;DHT22;69563;37.974;23.708;2023-07-13T15:31:23;30.20;40.40
80254;DHT22;69563;37.974;23.708;2023-07-13T15:33:51;30.20;40.30
80254;DHT22;69563;37.974;23.708;2023-07-13T15:36:18;30.20;40.30
80254;DHT22;69563;37.974;23.708;2023-07-13T15:38:45;30.20;40.40
80254;DHT22;69563;37.974;23.708;2023-07-13T15:43:41;30.20;40.40
80254;DHT22;69563;37.974;23.708;2023-07-13T15:46:06;30.20;40.40
80254;DHT22;69563;37.974;23.708;2023-07-13T15:48:32;30.20;40.50
80254;DHT22;69563;37.974;23.708;2023-07-13T15:51:02;30.20;40.60
80254;DHT22;69563;37.974;23.708;2023-07-13T15:53:30;30.20;40.40
80254;DHT22;69563;37.974;23.708;2023-07-13T15:55:57;30.30;40.60
80254;DHT22;69563;37.974;23.708;2023-07-13T15:58:24;30.30;40.60
80254;DHT22;69563;37.974;23.708;2023-07-13T16:00:50;30.20;40.60
80254;DHT22;69563;37.974;23.708;2023-07-13T16:03:17;30.30;40.60
80254;DHT22;69563;37.974;23.708;2023-07-13T16:05:44;30.30;40.70
80254;DHT22;69563;37.974;23.708;2023-07-13T16:08:31;30.30;40.70
80254;DHT22;69563;37.974;23.708;2023-07-13T16:10:59;30.30;40.70